sensor_id;sensor_type;location;lat;lon;timestamp;P1;durP1;ratioP1;P2;durP2;ratioP2
72379;SDS011;60354;47.798;12.472;2022-12-20T00:02:23;3.85;;;2.45;;
72379;SDS011;60354;47.798;12.472;2022-12-20T00:04:48;4.65;;;2.90;;
72379;SDS011;60354;47.798;12.472;2022-12-20T00:07:15;5.80;;;2.97;;
72379;SDS011;60354;47.798;12.472;2022-12-20T00:09:40;4.60;;;2.78;;
72379;SDS011;60354;47.798;12.472;2022-12-20T00:12:06;4.68;;;2.50;;
72379;SDS011;60354;47.798;12.472;2022-12-20T00:14:31;4.72;;;2.50;;
72379;SDS011;60354;47.798;12.472;2022-12-20T00:16:56;4.68;;;2.60;;
72379;SDS011;60354;47.798;12.472;2022-12-20T00:19:22;4.97;;;2.75;;
72379;SDS011;60354;47.798;12.472;2022-12-20T00:21:47;4.72;;;2.80;;
72379;SDS011;60354;47.798;12.472;2022-12-20T00:24:13;5.15;;;2.70;;
72379;SDS011;60354;47.798;12.472;2022-12-20T00:26:39;4.38;;;2.42;;
72379;SDS011;60354;47.798;12.472;2022-12-20T00:29:04;4.35;;;2.60;;
72379;SDS011;60354;47.798;12.472;2022-12-20T00:31:31;3.85;;;2.38;;
72379;SDS011;60354;47.798;12.472;2022-12-20T00:33:57;5.18;;;2.67;;
72379;SDS011;60354;47.798;12.472;2022-12-20T00:36:24;4.53;;;2.80;;
72379;SDS011;60354;47.798;12.472;2022-12-20T00:38:52;4.63;;;2.60;;
72379;SDS011;60354;47.798;12.472;2022-12-20T00:41:24;4.40;;;2.75;;
72379;SDS011;60354;47.798;12.472;2022-12-20T00:43:52;5.63;;;2.80;;
72379;SDS011;60354;47.798;12.472;2022-12-20T00:46:18;6.22;;;2.85;;
72379;SDS011;60354;47.798;12.472;2022-12-20T00:48:44;4.72;;;2.70;;
72379;SDS011;60354;47.798;12.472;2022-12-20T00:51:11;4.85;;;2.83;;
72379;SDS011;60354;47.798;12.472;2022-12-20T00:53:39;5.07;;;3.13;;
72379;SDS011;60354;47.798;12.472;2022-12-20T00:56:06;6.70;;;2.90;;
72379;SDS011;60354;47.798;12.472;2022-12-20T00:58:32;5.75;;;2.83;;
72379;SDS011;60354;47.798;12.472;2022-12-20T01:01:03;4.95;;;2.67;;
72379;SDS011;60354;47.798;12.472;2022-12-20T01:03:30;4.53;;;2.75;;
72379;SDS011;60354;47.798;12.472;2022-12-20T01:05:56;5.60;;;3.38;;
72379;SDS011;60354;47.798;12.472;2022-12-20T01:08:24;5.32;;;3.10;;
72379;SDS011;60354;47.798;12.472;2022-12-20T01:11:25;7.00;;;3.33;;
72379;SDS011;60354;47.798;12.472;2022-12-20T01:13:49;5.05;;;2.88;;
72379;SDS011;60354;47.798;12.472;2022-12-20T01:16:17;4.90;;;2.55;;
72379;SDS011;60354;47.798;12.472;2022-12-20T01:18:47;4.65;;;2.63;;
72379;SDS011;60354;47.798;12.472;2022-12-20T01:21:14;3.88;;;2.35;;
72379;SDS011;60354;47.798;12.472;2022-12-20T01:23:41;4.95;;;2.50;;
72379;SDS011;60354;47.798;12.472;2022-12-20T01:26:07;4.70;;;2.38;;
72379;SDS011;60354;47.798;12.472;2022-12-20T01:28:37;3.40;;;2.25;;
72379;SDS011;60354;47.798;12.472;2022-12-20T01:31:11;6.28;;;2.60;;
72379;SDS011;60354;47.798;12.472;2022-12-20T01:33:38;4.57;;;2.45;;
72379;SDS011;60354;47.798;12.472;2022-12-20T01:36:05;5.18;;;2.78;;
72379;SDS011;60354;47.798;12.472;2022-12-20T01:38:33;5.20;;;3.40;;
72379;SDS011;60354;47.798;12.472;2022-12-20T01:41:00;8.40;;;4.47;;
72379;SDS011;60354;47.798;12.472;2022-12-20T01:46:16;9.35;;;4.90;;
72379;SDS011;60354;47.798;12.472;2022-12-20T01:48:45;9.50;;;5.47;;
72379;SDS011;60354;47.798;12.472;2022-12-20T01:51:15;9.88;;;5.78;;
72379;SDS011;60354;47.798;12.472;2022-12-20T01:53:41;12.95;;;7.10;;
72379;SDS011;60354;47.798;12.472;2022-12-20T01:56:07;12.02;;;6.50;;
72379;SDS011;60354;47.798;12.472;2022-12-20T01:58:34;10.65;;;6.03;;
72379;SDS011;60354;47.798;12.472;2022-12-20T02:01:02;8.70;;;5.18;;
72379;SDS011;60354;47.798;12.472;2022-12-20T02:03:28;9.45;;;5.57;;
72379;SDS011;60354;47.798;12.472;2022-12-20T02:05:56;11.25;;;6.78;;
72379;SDS011;60354;47.798;12.472;2022-12-20T02:08:22;11.95;;;6.75;;
72379;SDS011;60354;47.798;12.472;2022-12-20T02:16:13;9.07;;;5.07;;
72379;SDS011;60354;47.798;12.472;2022-12-20T02:19:01;10.25;;;5.30;;
72379;SDS011;60354;47.798;12.472;2022-12-20T02:31:54;10.13;;;5.47;;
72379;SDS011;60354;47.798;12.472;2022-12-20T02:34:27;9.48;;;4.82;;
72379;SDS011;60354;47.798;12.472;2022-12-20T02:36:57;8.88;;;5.38;;
72379;SDS011;60354;47.798;12.472;2022-12-20T02:39:22;8.10;;;5.03;;
72379;SDS011;60354;47.798;12.472;2022-12-20T02:41:55;8.70;;;5.10;;
72379;SDS011;60354;47.798;12.472;2022-12-20T02:44:25;9.07;;;4.95;;
72379;SDS011;60354;47.798;12.472;2022-12-20T02:47:12;8.05;;;4.68;;
72379;SDS011;60354;47.798;12.472;2022-12-20T02:49:41;10.73;;;5.18;;
72379;SDS011;60354;47.798;12.472;2022-12-20T02:52:08;7.95;;;5.03;;
72379;SDS011;60354;47.798;12.472;2022-12-20T02:54:37;9.23;;;5.07;;
72379;SDS011;60354;47.798;12.472;2022-12-20T02:59:44;7.32;;;4.70;;
72379;SDS011;60354;47.798;12.472;2022-12-20T03:02:22;9.38;;;4.90;;
72379;SDS011;60354;47.798;12.472;2022-12-20T03:04:49;11.10;;;5.45;;
72379;SDS011;60354;47.798;12.472;2022-12-20T03:07:15;10.20;;;5.35;;
72379;SDS011;60354;47.798;12.472;2022-12-20T03:09:42;9.55;;;5.57;;
72379;SDS011;60354;47.798;12.472;2022-12-20T03:12:11;11.60;;;5.78;;
72379;SDS011;60354;47.798;12.472;2022-12-20T03:14:40;9.10;;;5.32;;
72379;SDS011;60354;47.798;12.472;2022-12-20T03:17:08;9.73;;;5.50;;
72379;SDS011;60354;47.798;12.472;2022-12-20T03:19:36;9.40;;;5.45;;
72379;SDS011;60354;47.798;12.472;2022-12-20T03:22:01;8.80;;;4.88;;
72379;SDS011;60354;47.798;12.472;2022-12-20T03:24:29;8.60;;;4.80;;
72379;SDS011;60354;47.798;12.472;2022-12-20T03:26:57;13.40;;;7.22;;
72379;SDS011;60354;47.798;12.472;2022-12-20T03:29:23;12.27;;;6.30;;
72379;SDS011;60354;47.798;12.472;2022-12-20T03:31:49;9.57;;;5.65;;
72379;SDS011;60354;47.798;12.472;2022-12-20T03:34:15;6.57;;;3.92;;
72379;SDS011;60354;47.798;12.472;2022-12-20T03:36:40;8.15;;;4.20;;
72379;SDS011;60354;47.798;12.472;2022-12-20T03:39:06;8.32;;;4.38;;
72379;SDS011;60354;47.798;12.472;2022-12-20T03:41:35;7.72;;;4.57;;
72379;SDS011;60354;47.798;12.472;2022-12-20T03:44:01;8.13;;;3.88;;
72379;SDS011;60354;47.798;12.472;2022-12-20T03:46:27;7.63;;;4.05;;
72379;SDS011;60354;47.798;12.472;2022-12-20T03:48:53;11.90;;;7.00;;
72379;SDS011;60354;47.798;12.472;2022-12-20T03:51:19;9.23;;;5.03;;
72379;SDS011;60354;47.798;12.472;2022-12-20T03:53:44;10.73;;;4.72;;
72379;SDS011;60354;47.798;12.472;2022-12-20T03:56:11;9.93;;;4.72;;
72379;SDS011;60354;47.798;12.472;2022-12-20T03:58:38;7.90;;;4.50;;
72379;SDS011;60354;47.798;12.472;2022-12-20T04:01:20;7.95;;;4.22;;
72379;SDS011;60354;47.798;12.472;2022-12-20T04:03:48;9.48;;;4.30;;
72379;SDS011;60354;47.798;12.472;2022-12-20T04:06:14;5.07;;;2.97;;
72379;SDS011;60354;47.798;12.472;2022-12-20T04:08:40;4.68;;;2.80;;
72379;SDS011;60354;47.798;12.472;2022-12-20T04:11:07;4.85;;;2.50;;
72379;SDS011;60354;47.798;12.472;2022-12-20T04:13:53;4.70;;;2.78;;
72379;SDS011;60354;47.798;12.472;2022-12-20T04:16:25;5.78;;;2.60;;
72379;SDS011;60354;47.798;12.472;2022-12-20T04:18:53;6.35;;;3.60;;
72379;SDS011;60354;47.798;12.472;2022-12-20T04:21:23;7.35;;;3.70;;
72379;SDS011;60354;47.798;12.472;2022-12-20T04:23:51;6.40;;;3.75;;
72379;SDS011;60354;47.798;12.472;2022-12-20T04:26:17;7.50;;;3.72;;
72379;SDS011;60354;47.798;12.472;2022-12-20T04:28:44;8.05;;;3.25;;
72379;SDS011;60354;47.798;12.472;2022-12-20T04:31:09;7.90;;;3.60;;
72379;SDS011;60354;47.798;12.472;2022-12-20T04:33:36;4.93;;;3.00;;
72379;SDS011;60354;47.798;12.472;2022-12-20T04:36:03;8.23;;;3.55;;
72379;SDS011;60354;47.798;12.472;2022-12-20T04:38:30;8.57;;;4.95;;
72379;SDS011;60354;47.798;12.472;2022-12-20T04:40:56;7.78;;;4.65;;
72379;SDS011;60354;47.798;12.472;2022-12-20T04:43:24;4.95;;;2.88;;
72379;SDS011;60354;47.798;12.472;2022-12-20T04:45:54;5.70;;;3.25;;
72379;SDS011;60354;47.798;12.472;2022-12-20T04:48:23;5.18;;;2.88;;
72379;SDS011;60354;47.798;12.472;2022-12-20T04:50:54;5.60;;;3.30;;
72379;SDS011;60354;47.798;12.472;2022-12-20T04:53:21;5.20;;;2.80;;
72379;SDS011;60354;47.798;12.472;2022-12-20T04:56:07;5.18;;;2.80;;
72379;SDS011;60354;47.798;12.472;2022-12-20T04:58:33;6.25;;;2.42;;
72379;SDS011;60354;47.798;12.472;2022-12-20T05:01:00;5.00;;;2.38;;
72379;SDS011;60354;47.798;12.472;2022-12-20T05:03:33;4.13;;;2.30;;
72379;SDS011;60354;47.798;12.472;2022-12-20T05:05:58;4.75;;;2.55;;
72379;SDS011;60354;47.798;12.472;2022-12-20T05:08:24;4.82;;;2.45;;
72379;SDS011;60354;47.798;12.472;2022-12-20T05:10:51;4.10;;;2.45;;
72379;SDS011;60354;47.798;12.472;2022-12-20T05:13:17;4.63;;;2.72;;
72379;SDS011;60354;47.798;12.472;2022-12-20T05:15:44;4.07;;;2.40;;
72379;SDS011;60354;47.798;12.472;2022-12-20T05:18:10;5.28;;;2.83;;
72379;SDS011;60354;47.798;12.472;2022-12-20T05:20:57;4.13;;;2.78;;
72379;SDS011;60354;47.798;12.472;2022-12-20T05:23:45;5.15;;;2.60;;
72379;SDS011;60354;47.798;12.472;2022-12-20T05:26:35;4.38;;;2.50;;
72379;SDS011;60354;47.798;12.472;2022-12-20T05:29:04;5.13;;;2.90;;
72379;SDS011;60354;47.798;12.472;2022-12-20T05:31:31;4.25;;;2.55;;
72379;SDS011;60354;47.798;12.472;2022-12-20T05:33:57;4.55;;;2.63;;
72379;SDS011;60354;47.798;12.472;2022-12-20T05:36:27;6.30;;;2.80;;
72379;SDS011;60354;47.798;12.472;2022-12-20T05:38:54;5.63;;;3.08;;
72379;SDS011;60354;47.798;12.472;2022-12-20T05:41:21;4.95;;;3.00;;
72379;SDS011;60354;47.798;12.472;2022-12-20T05:43:49;5.13;;;3.03;;
72379;SDS011;60354;47.798;12.472;2022-12-20T05:46:15;4.82;;;2.75;;
72379;SDS011;60354;47.798;12.472;2022-12-20T05:48:51;3.85;;;2.58;;
72379;SDS011;60354;47.798;12.472;2022-12-20T05:51:17;4.97;;;3.08;;
72379;SDS011;60354;47.798;12.472;2022-12-20T05:53:55;4.45;;;2.88;;
72379;SDS011;60354;47.798;12.472;2022-12-20T05:56:33;6.15;;;4.28;;
72379;SDS011;60354;47.798;12.472;2022-12-20T05:58:58;7.55;;;4.10;;
72379;SDS011;60354;47.798;12.472;2022-12-20T06:01:24;9.50;;;4.00;;
72379;SDS011;60354;47.798;12.472;2022-12-20T06:03:55;8.20;;;3.80;;
72379;SDS011;60354;47.798;12.472;2022-12-20T06:06:21;10.73;;;6.22;;
72379;SDS011;60354;47.798;12.472;2022-12-20T06:08:47;15.73;;;8.15;;
72379;SDS011;60354;47.798;12.472;2022-12-20T06:11:28;35.28;;;15.77;;
72379;SDS011;60354;47.798;12.472;2022-12-20T06:13:59;35.97;;;17.73;;
72379;SDS011;60354;47.798;12.472;2022-12-20T06:16:25;140.90;;;57.90;;
72379;SDS011;60354;47.798;12.472;2022-12-20T06:18:53;40.67;;;19.75;;
72379;SDS011;60354;47.798;12.472;2022-12-20T06:21:19;24.83;;;13.13;;
72379;SDS011;60354;47.798;12.472;2022-12-20T06:23:46;10.23;;;5.00;;
72379;SDS011;60354;47.798;12.472;2022-12-20T06:26:15;6.22;;;3.35;;
72379;SDS011;60354;47.798;12.472;2022-12-20T06:28:46;6.15;;;3.78;;
72379;SDS011;60354;47.798;12.472;2022-12-20T06:31:18;7.20;;;4.45;;
72379;SDS011;60354;47.798;12.472;2022-12-20T06:33:48;7.85;;;3.30;;
72379;SDS011;60354;47.798;12.472;2022-12-20T06:36:15;4.80;;;3.15;;
72379;SDS011;60354;47.798;12.472;2022-12-20T06:38:41;6.18;;;3.38;;
72379;SDS011;60354;47.798;12.472;2022-12-20T06:41:07;6.60;;;3.30;;
72379;SDS011;60354;47.798;12.472;2022-12-20T06:43:32;6.90;;;3.50;;
72379;SDS011;60354;47.798;12.472;2022-12-20T06:45:58;5.60;;;2.63;;
72379;SDS011;60354;47.798;12.472;2022-12-20T06:48:23;5.80;;;2.72;;
72379;SDS011;60354;47.798;12.472;2022-12-20T06:50:49;4.60;;;2.55;;
72379;SDS011;60354;47.798;12.472;2022-12-20T06:53:16;3.95;;;2.80;;
72379;SDS011;60354;47.798;12.472;2022-12-20T06:55:42;7.45;;;4.38;;
72379;SDS011;60354;47.798;12.472;2022-12-20T06:58:08;116.55;;;47.20;;
72379;SDS011;60354;47.798;12.472;2022-12-20T07:00:36;41.88;;;22.00;;
72379;SDS011;60354;47.798;12.472;2022-12-20T07:03:04;10.25;;;6.03;;
72379;SDS011;60354;47.798;12.472;2022-12-20T07:05:29;6.03;;;3.42;;
72379;SDS011;60354;47.798;12.472;2022-12-20T07:07:55;5.88;;;3.50;;
72379;SDS011;60354;47.798;12.472;2022-12-20T07:10:20;5.05;;;2.80;;
72379;SDS011;60354;47.798;12.472;2022-12-20T07:12:46;4.57;;;2.72;;
72379;SDS011;60354;47.798;12.472;2022-12-20T07:15:11;5.55;;;3.20;;
72379;SDS011;60354;47.798;12.472;2022-12-20T07:17:37;6.55;;;3.40;;
72379;SDS011;60354;47.798;12.472;2022-12-20T07:20:02;6.05;;;3.33;;
72379;SDS011;60354;47.798;12.472;2022-12-20T07:22:28;5.80;;;2.80;;
72379;SDS011;60354;47.798;12.472;2022-12-20T07:24:53;4.68;;;2.80;;
72379;SDS011;60354;47.798;12.472;2022-12-20T07:27:19;5.30;;;2.88;;
72379;SDS011;60354;47.798;12.472;2022-12-20T07:29:44;6.10;;;3.13;;
72379;SDS011;60354;47.798;12.472;2022-12-20T07:32:10;5.97;;;2.85;;
72379;SDS011;60354;47.798;12.472;2022-12-20T07:34:36;6.60;;;3.38;;
72379;SDS011;60354;47.798;12.472;2022-12-20T07:37:02;7.72;;;3.53;;
72379;SDS011;60354;47.798;12.472;2022-12-20T07:39:28;5.95;;;3.35;;
72379;SDS011;60354;47.798;12.472;2022-12-20T07:41:54;6.53;;;2.90;;
72379;SDS011;60354;47.798;12.472;2022-12-20T07:44:21;4.85;;;2.55;;
72379;SDS011;60354;47.798;12.472;2022-12-20T07:46:47;4.63;;;2.60;;
72379;SDS011;60354;47.798;12.472;2022-12-20T07:49:13;6.35;;;2.40;;
72379;SDS011;60354;47.798;12.472;2022-12-20T07:51:41;3.45;;;2.22;;
72379;SDS011;60354;47.798;12.472;2022-12-20T07:54:14;6.72;;;3.13;;
72379;SDS011;60354;47.798;12.472;2022-12-20T07:56:47;4.55;;;2.70;;
72379;SDS011;60354;47.798;12.472;2022-12-20T07:59:17;3.78;;;2.15;;
72379;SDS011;60354;47.798;12.472;2022-12-20T08:01:45;3.45;;;2.00;;
72379;SDS011;60354;47.798;12.472;2022-12-20T08:04:19;3.97;;;2.22;;
72379;SDS011;60354;47.798;12.472;2022-12-20T08:06:48;4.50;;;2.30;;
72379;SDS011;60354;47.798;12.472;2022-12-20T08:09:16;4.22;;;2.78;;
72379;SDS011;60354;47.798;12.472;2022-12-20T08:11:44;6.15;;;2.60;;
72379;SDS011;60354;47.798;12.472;2022-12-20T08:14:11;8.20;;;3.28;;
72379;SDS011;60354;47.798;12.472;2022-12-20T08:16:37;6.40;;;2.75;;
72379;SDS011;60354;47.798;12.472;2022-12-20T08:19:03;3.22;;;2.10;;
72379;SDS011;60354;47.798;12.472;2022-12-20T08:21:29;3.30;;;2.17;;
72379;SDS011;60354;47.798;12.472;2022-12-20T08:23:54;5.32;;;3.28;;
72379;SDS011;60354;47.798;12.472;2022-12-20T08:26:21;5.28;;;3.30;;
72379;SDS011;60354;47.798;12.472;2022-12-20T08:28:46;6.65;;;3.30;;
72379;SDS011;60354;47.798;12.472;2022-12-20T08:31:12;7.20;;;3.80;;
72379;SDS011;60354;47.798;12.472;2022-12-20T08:33:38;7.40;;;4.18;;
72379;SDS011;60354;47.798;12.472;2022-12-20T08:36:05;5.75;;;3.20;;
72379;SDS011;60354;47.798;12.472;2022-12-20T08:38:33;4.95;;;2.88;;
72379;SDS011;60354;47.798;12.472;2022-12-20T08:41:10;3.45;;;2.38;;
72379;SDS011;60354;47.798;12.472;2022-12-20T08:43:37;4.03;;;2.38;;
72379;SDS011;60354;47.798;12.472;2022-12-20T08:46:04;4.55;;;2.67;;
72379;SDS011;60354;47.798;12.472;2022-12-20T08:48:32;3.90;;;2.40;;
72379;SDS011;60354;47.798;12.472;2022-12-20T08:50:59;4.30;;;2.55;;
72379;SDS011;60354;47.798;12.472;2022-12-20T08:53:27;4.70;;;3.08;;
72379;SDS011;60354;47.798;12.472;2022-12-20T08:55:53;5.60;;;3.10;;
72379;SDS011;60354;47.798;12.472;2022-12-20T08:58:19;7.97;;;3.30;;
72379;SDS011;60354;47.798;12.472;2022-12-20T09:00:45;7.78;;;3.97;;
72379;SDS011;60354;47.798;12.472;2022-12-20T09:03:11;12.20;;;5.40;;
72379;SDS011;60354;47.798;12.472;2022-12-20T09:05:45;6.15;;;3.28;;
72379;SDS011;60354;47.798;12.472;2022-12-20T09:08:11;5.78;;;2.90;;
72379;SDS011;60354;47.798;12.472;2022-12-20T09:10:38;5.75;;;3.30;;
72379;SDS011;60354;47.798;12.472;2022-12-20T09:13:04;5.90;;;3.35;;
72379;SDS011;60354;47.798;12.472;2022-12-20T09:15:29;4.82;;;2.95;;
72379;SDS011;60354;47.798;12.472;2022-12-20T09:17:55;7.93;;;2.85;;
72379;SDS011;60354;47.798;12.472;2022-12-20T09:20:22;5.78;;;3.33;;
72379;SDS011;60354;47.798;12.472;2022-12-20T09:22:47;9.32;;;4.22;;
72379;SDS011;60354;47.798;12.472;2022-12-20T09:25:13;8.60;;;3.83;;
72379;SDS011;60354;47.798;12.472;2022-12-20T09:27:38;12.68;;;6.95;;
72379;SDS011;60354;47.798;12.472;2022-12-20T09:30:04;8.40;;;3.90;;
72379;SDS011;60354;47.798;12.472;2022-12-20T09:32:30;5.85;;;3.10;;
72379;SDS011;60354;47.798;12.472;2022-12-20T09:34:55;6.28;;;3.40;;
72379;SDS011;60354;47.798;12.472;2022-12-20T09:37:21;6.72;;;3.13;;
72379;SDS011;60354;47.798;12.472;2022-12-20T09:39:47;5.00;;;2.97;;
72379;SDS011;60354;47.798;12.472;2022-12-20T09:42:14;6.78;;;3.80;;
72379;SDS011;60354;47.798;12.472;2022-12-20T09:44:40;7.93;;;3.17;;
72379;SDS011;60354;47.798;12.472;2022-12-20T09:47:10;4.85;;;2.83;;
72379;SDS011;60354;47.798;12.472;2022-12-20T09:49:42;13.88;;;6.93;;
72379;SDS011;60354;47.798;12.472;2022-12-20T09:59:54;6.32;;;3.20;;
72379;SDS011;60354;47.798;12.472;2022-12-20T10:02:23;3.80;;;2.03;;
72379;SDS011;60354;47.798;12.472;2022-12-20T10:04:49;3.15;;;1.70;;
72379;SDS011;60354;47.798;12.472;2022-12-20T10:23:08;5.95;;;2.20;;
72379;SDS011;60354;47.798;12.472;2022-12-20T10:25:51;4.22;;;1.88;;
72379;SDS011;60354;47.798;12.472;2022-12-20T10:28:19;3.50;;;2.05;;
72379;SDS011;60354;47.798;12.472;2022-12-20T10:30:57;3.95;;;2.20;;
72379;SDS011;60354;47.798;12.472;2022-12-20T10:33:29;3.65;;;1.90;;
72379;SDS011;60354;47.798;12.472;2022-12-20T10:35:55;3.95;;;2.28;;
72379;SDS011;60354;47.798;12.472;2022-12-20T10:38:44;5.07;;;2.50;;
72379;SDS011;60354;47.798;12.472;2022-12-20T10:41:17;4.55;;;2.60;;
72379;SDS011;60354;47.798;12.472;2022-12-20T10:43:46;5.18;;;2.53;;
72379;SDS011;60354;47.798;12.472;2022-12-20T10:46:15;3.65;;;2.05;;
72379;SDS011;60354;47.798;12.472;2022-12-20T10:48:42;3.42;;;1.98;;
72379;SDS011;60354;47.798;12.472;2022-12-20T10:53:34;3.80;;;2.22;;
72379;SDS011;60354;47.798;12.472;2022-12-20T10:58:40;5.32;;;2.50;;
72379;SDS011;60354;47.798;12.472;2022-12-20T11:03:39;4.93;;;2.40;;
72379;SDS011;60354;47.798;12.472;2022-12-20T11:06:15;4.93;;;3.00;;
72379;SDS011;60354;47.798;12.472;2022-12-20T11:08:42;5.20;;;2.83;;
72379;SDS011;60354;47.798;12.472;2022-12-20T11:13:38;5.38;;;2.55;;
72379;SDS011;60354;47.798;12.472;2022-12-20T11:16:05;4.15;;;2.50;;
72379;SDS011;60354;47.798;12.472;2022-12-20T11:21:37;3.55;;;2.38;;
72379;SDS011;60354;47.798;12.472;2022-12-20T11:27:15;6.85;;;2.70;;
72379;SDS011;60354;47.798;12.472;2022-12-20T11:32:25;9.38;;;5.22;;
72379;SDS011;60354;47.798;12.472;2022-12-20T11:38:31;8.65;;;5.30;;
72379;SDS011;60354;47.798;12.472;2022-12-20T11:41:09;11.10;;;6.25;;
72379;SDS011;60354;47.798;12.472;2022-12-20T11:46:36;13.13;;;7.60;;
72379;SDS011;60354;47.798;12.472;2022-12-20T11:51:45;13.25;;;7.07;;
72379;SDS011;60354;47.798;12.472;2022-12-20T11:54:28;13.70;;;7.65;;
72379;SDS011;60354;47.798;12.472;2022-12-20T11:56:58;11.93;;;7.32;;
72379;SDS011;60354;47.798;12.472;2022-12-20T12:02:04;12.57;;;7.68;;
72379;SDS011;60354;47.798;12.472;2022-12-20T12:04:35;12.70;;;7.50;;
72379;SDS011;60354;47.798;12.472;2022-12-20T12:14:59;15.60;;;8.70;;
72379;SDS011;60354;47.798;12.472;2022-12-20T12:17:50;14.32;;;7.82;;
72379;SDS011;60354;47.798;12.472;2022-12-20T12:20:22;15.05;;;8.43;;
72379;SDS011;60354;47.798;12.472;2022-12-20T12:23:01;21.77;;;9.77;;
72379;SDS011;60354;47.798;12.472;2022-12-20T12:25:31;13.73;;;8.32;;
72379;SDS011;60354;47.798;12.472;2022-12-20T12:27:56;9.85;;;6.55;;
72379;SDS011;60354;47.798;12.472;2022-12-20T12:30:22;16.75;;;9.88;;
72379;SDS011;60354;47.798;12.472;2022-12-20T12:32:56;17.00;;;8.63;;
72379;SDS011;60354;47.798;12.472;2022-12-20T12:41:33;15.82;;;7.38;;
72379;SDS011;60354;47.798;12.472;2022-12-20T12:47:01;10.52;;;5.30;;
72379;SDS011;60354;47.798;12.472;2022-12-20T12:49:35;8.23;;;4.40;;
72379;SDS011;60354;47.798;12.472;2022-12-20T12:52:02;95.95;;;41.22;;
72379;SDS011;60354;47.798;12.472;2022-12-20T12:54:36;74.68;;;33.78;;
72379;SDS011;60354;47.798;12.472;2022-12-20T12:57:14;34.33;;;16.60;;
72379;SDS011;60354;47.798;12.472;2022-12-20T13:04:51;12.23;;;7.10;;
72379;SDS011;60354;47.798;12.472;2022-12-20T13:10:55;25.73;;;13.43;;
72379;SDS011;60354;47.798;12.472;2022-12-20T13:17:58;11.52;;;6.07;;
72379;SDS011;60354;47.798;12.472;2022-12-20T13:20:26;12.15;;;6.35;;
72379;SDS011;60354;47.798;12.472;2022-12-20T13:25:34;10.35;;;5.55;;
72379;SDS011;60354;47.798;12.472;2022-12-20T13:30:47;9.45;;;4.85;;
72379;SDS011;60354;47.798;12.472;2022-12-20T13:33:45;10.35;;;6.22;;
72379;SDS011;60354;47.798;12.472;2022-12-20T13:38:53;11.82;;;7.18;;
72379;SDS011;60354;47.798;12.472;2022-12-20T13:43:55;15.10;;;8.02;;
72379;SDS011;60354;47.798;12.472;2022-12-20T13:46:41;17.33;;;8.90;;
72379;SDS011;60354;47.798;12.472;2022-12-20T13:49:14;26.75;;;11.85;;
72379;SDS011;60354;47.798;12.472;2022-12-20T13:51:46;39.13;;;15.00;;
72379;SDS011;60354;47.798;12.472;2022-12-20T13:54:16;30.85;;;13.65;;
72379;SDS011;60354;47.798;12.472;2022-12-20T13:56:45;33.80;;;15.32;;
72379;SDS011;60354;47.798;12.472;2022-12-20T14:01:49;57.58;;;18.85;;
72379;SDS011;60354;47.798;12.472;2022-12-20T14:04:18;39.33;;;15.95;;
72379;SDS011;60354;47.798;12.472;2022-12-20T14:06:49;27.42;;;13.05;;
72379;SDS011;60354;47.798;12.472;2022-12-20T14:09:27;25.35;;;12.23;;
72379;SDS011;60354;47.798;12.472;2022-12-20T14:12:01;24.10;;;11.43;;
72379;SDS011;60354;47.798;12.472;2022-12-20T14:14:27;36.97;;;17.83;;
72379;SDS011;60354;47.798;12.472;2022-12-20T14:16:53;28.27;;;14.93;;
72379;SDS011;60354;47.798;12.472;2022-12-20T14:19:18;24.13;;;13.23;;
72379;SDS011;60354;47.798;12.472;2022-12-20T14:21:44;23.42;;;13.30;;
72379;SDS011;60354;47.798;12.472;2022-12-20T14:24:14;22.85;;;12.25;;
72379;SDS011;60354;47.798;12.472;2022-12-20T14:26:43;24.05;;;12.82;;
72379;SDS011;60354;47.798;12.472;2022-12-20T14:29:19;29.95;;;16.20;;
72379;SDS011;60354;47.798;12.472;2022-12-20T14:31:52;21.13;;;12.07;;
72379;SDS011;60354;47.798;12.472;2022-12-20T14:34:20;23.15;;;12.57;;
72379;SDS011;60354;47.798;12.472;2022-12-20T14:36:49;28.95;;;16.27;;
72379;SDS011;60354;47.798;12.472;2022-12-20T14:39:33;22.52;;;13.77;;
72379;SDS011;60354;47.798;12.472;2022-12-20T14:44:31;28.27;;;13.27;;
72379;SDS011;60354;47.798;12.472;2022-12-20T14:47:03;21.73;;;12.85;;
72379;SDS011;60354;47.798;12.472;2022-12-20T14:49:39;18.90;;;10.35;;
72379;SDS011;60354;47.798;12.472;2022-12-20T14:52:37;15.50;;;8.52;;
72379;SDS011;60354;47.798;12.472;2022-12-20T14:55:05;14.85;;;9.02;;
72379;SDS011;60354;47.798;12.472;2022-12-20T15:05:51;17.33;;;8.60;;
72379;SDS011;60354;47.798;12.472;2022-12-20T15:08:30;14.30;;;8.65;;
72379;SDS011;60354;47.798;12.472;2022-12-20T15:13:36;14.50;;;7.80;;
72379;SDS011;60354;47.798;12.472;2022-12-20T15:16:21;13.27;;;7.65;;
72379;SDS011;60354;47.798;12.472;2022-12-20T15:18:51;15.30;;;7.07;;
72379;SDS011;60354;47.798;12.472;2022-12-20T15:24:00;32.25;;;13.38;;
72379;SDS011;60354;47.798;12.472;2022-12-20T15:26:26;88.20;;;21.35;;
72379;SDS011;60354;47.798;12.472;2022-12-20T15:28:53;115.85;;;29.98;;
72379;SDS011;60354;47.798;12.472;2022-12-20T15:31:20;52.97;;;16.40;;
72379;SDS011;60354;47.798;12.472;2022-12-20T15:33:48;8.85;;;4.47;;
72379;SDS011;60354;47.798;12.472;2022-12-20T15:38:48;3.45;;;2.00;;
72379;SDS011;60354;47.798;12.472;2022-12-20T15:43:57;3.30;;;1.90;;
72379;SDS011;60354;47.798;12.472;2022-12-20T15:48:53;3.83;;;2.50;;
72379;SDS011;60354;47.798;12.472;2022-12-20T15:51:34;6.10;;;3.22;;
72379;SDS011;60354;47.798;12.472;2022-12-20T15:54:03;5.18;;;2.72;;
72379;SDS011;60354;47.798;12.472;2022-12-20T15:56:30;4.00;;;2.60;;
72379;SDS011;60354;47.798;12.472;2022-12-20T15:58:56;16.15;;;2.40;;
72379;SDS011;60354;47.798;12.472;2022-12-20T16:01:26;7.93;;;4.30;;
72379;SDS011;60354;47.798;12.472;2022-12-20T16:03:55;6.28;;;3.50;;
72379;SDS011;60354;47.798;12.472;2022-12-20T16:06:20;7.13;;;3.40;;
72379;SDS011;60354;47.798;12.472;2022-12-20T16:08:47;6.97;;;2.90;;
72379;SDS011;60354;47.798;12.472;2022-12-20T16:11:23;11.77;;;4.78;;
72379;SDS011;60354;47.798;12.472;2022-12-20T16:13:48;6.97;;;4.25;;
72379;SDS011;60354;47.798;12.472;2022-12-20T16:16:19;11.38;;;6.18;;
72379;SDS011;60354;47.798;12.472;2022-12-20T16:18:47;10.95;;;6.30;;
72379;SDS011;60354;47.798;12.472;2022-12-20T16:21:16;10.30;;;6.00;;
72379;SDS011;60354;47.798;12.472;2022-12-20T16:23:44;9.13;;;4.88;;
72379;SDS011;60354;47.798;12.472;2022-12-20T16:26:13;9.40;;;4.03;;
72379;SDS011;60354;47.798;12.472;2022-12-20T16:28:40;13.88;;;6.18;;
72379;SDS011;60354;47.798;12.472;2022-12-20T16:33:47;12.98;;;6.68;;
72379;SDS011;60354;47.798;12.472;2022-12-20T16:36:13;7.15;;;4.45;;
72379;SDS011;60354;47.798;12.472;2022-12-20T16:38:39;10.00;;;5.95;;
72379;SDS011;60354;47.798;12.472;2022-12-20T16:41:15;12.43;;;6.72;;
72379;SDS011;60354;47.798;12.472;2022-12-20T16:43:43;13.70;;;7.05;;
72379;SDS011;60354;47.798;12.472;2022-12-20T16:46:10;13.30;;;8.18;;
72379;SDS011;60354;47.798;12.472;2022-12-20T16:48:37;16.73;;;9.93;;
72379;SDS011;60354;47.798;12.472;2022-12-20T16:51:03;17.38;;;9.05;;
72379;SDS011;60354;47.798;12.472;2022-12-20T16:53:35;13.65;;;9.02;;
72379;SDS011;60354;47.798;12.472;2022-12-20T16:56:00;10.18;;;5.97;;
72379;SDS011;60354;47.798;12.472;2022-12-20T16:58:29;8.27;;;4.25;;
72379;SDS011;60354;47.798;12.472;2022-12-20T17:00:54;4.18;;;2.50;;
72379;SDS011;60354;47.798;12.472;2022-12-20T17:03:20;4.88;;;2.90;;
72379;SDS011;60354;47.798;12.472;2022-12-20T17:05:45;4.78;;;2.42;;